createdAt,value
2023-04-11T00:00:48.206Z,9.70
2023-04-11T00:03:16.994Z,9.70
2023-04-11T00:05:45.662Z,9.70
2023-04-11T00:08:14.261Z,9.70
2023-04-11T00:10:45.618Z,9.70
2023-04-11T00:13:14.544Z,9.70
2023-04-11T00:15:43.227Z,9.60
2023-04-11T00:18:12.582Z,9.60
2023-04-11T00:20:41.132Z,9.60
2023-04-11T00:23:09.664Z,9.60
2023-04-11T00:25:38.208Z,9.70
2023-04-11T00:28:08.072Z,9.70
2023-04-11T00:30:36.739Z,9.60
2023-04-11T00:33:05.391Z,9.60
2023-04-11T00:35:35.127Z,9.70
2023-04-11T00:38:03.979Z,9.70
2023-04-11T00:40:32.864Z,9.70
2023-04-11T00:43:01.479Z,9.70
2023-04-11T00:45:31.552Z,9.60
2023-04-11T00:48:00.504Z,9.60
2023-04-11T00:50:29.399Z,9.70
2023-04-11T00:52:58.984Z,9.70
2023-04-11T00:55:28.800Z,9.60
2023-04-11T00:57:58.287Z,9.70
2023-04-11T01:00:30.281Z,9.70
2023-04-11T01:03:01.122Z,9.70
2023-04-11T01:05:31.447Z,9.70
2023-04-11T01:08:01.395Z,9.70
2023-04-11T01:10:32.957Z,9.60
2023-04-11T01:13:02.276Z,9.60
2023-04-11T01:15:31.189Z,9.60
2023-04-11T01:18:02.100Z,9.60
2023-04-11T01:20:33.730Z,9.50
2023-04-11T01:23:03.609Z,9.50
2023-04-11T01:25:34.074Z,9.50
2023-04-11T01:28:03.182Z,9.50
2023-04-11T01:30:31.853Z,9.50
2023-04-11T01:33:00.679Z,9.50
2023-04-11T01:35:29.451Z,9.50
2023-04-11T01:37:58.338Z,9.50
2023-04-11T01:40:29.604Z,9.50
2023-04-11T01:43:01.921Z,9.50
2023-04-11T01:45:31.033Z,9.50
2023-04-11T01:47:59.998Z,9.50
2023-04-11T01:50:28.762Z,9.40
2023-04-11T01:52:57.243Z,9.40
2023-04-11T01:55:26.267Z,9.40
2023-04-11T01:57:55.383Z,9.40
2023-04-11T02:00:26.621Z,9.40
2023-04-11T02:02:55.476Z,9.40
2023-04-11T02:05:24.684Z,9.40
2023-04-11T02:07:53.248Z,9.50
2023-04-11T02:10:21.839Z,9.40
2023-04-11T02:12:50.394Z,9.40
2023-04-11T02:15:19.115Z,9.40
2023-04-11T02:17:53.905Z,9.40
2023-04-11T02:20:23.172Z,9.40
2023-04-11T02:22:51.663Z,9.50
2023-04-11T02:25:20.558Z,9.50
2023-04-11T02:27:49.054Z,9.50
2023-04-11T02:30:17.704Z,9.50
2023-04-11T02:32:46.700Z,9.50
2023-04-11T02:35:17.426Z,9.50
2023-04-11T02:37:46.091Z,9.60
2023-04-11T02:40:14.712Z,9.60
2023-04-11T02:42:43.515Z,9.60
2023-04-11T02:45:12.906Z,9.50
2023-04-11T02:47:41.503Z,9.50
2023-04-11T02:50:11.547Z,9.50
2023-04-11T02:52:49.203Z,9.50
2023-04-11T02:55:23.209Z,9.40
2023-04-11T02:57:52.874Z,9.40
2023-04-11T03:00:22.832Z,9.40
2023-04-11T03:02:59.106Z,9.40
2023-04-11T03:05:28.417Z,9.40
2023-04-11T03:07:58.941Z,9.30
2023-04-11T03:10:29.973Z,9.30
2023-04-11T03:12:59.555Z,9.30
2023-04-11T03:15:28.406Z,9.30
2023-04-11T03:17:57.065Z,9.40
2023-04-11T03:20:25.791Z,9.40
2023-04-11T03:22:55.475Z,9.40
2023-04-11T03:25:28.213Z,9.40
2023-04-11T03:27:57.176Z,9.30
2023-04-11T03:30:25.824Z,9.30
2023-04-11T03:32:54.494Z,9.30
2023-04-11T03:35:23.196Z,9.30
2023-04-11T03:37:52.762Z,9.30
2023-04-11T03:40:23.067Z,9.20
2023-04-11T03:43:04.223Z,9.20
2023-04-11T03:45:35.117Z,9.20
2023-04-11T03:48:07.311Z,9.10
2023-04-11T03:50:48.632Z,9.10
2023-04-11T03:53:21.076Z,9.10
2023-04-11T03:55:54.367Z,9.10
2023-04-11T03:58:28.452Z,9.10
2023-04-11T04:00:57.231Z,9.10
2023-04-11T04:03:26.140Z,9.20
2023-04-11T04:05:54.883Z,9.00
2023-04-11T04:08:24.859Z,9.00
2023-04-11T04:10:54.010Z,9.00
2023-04-11T04:13:22.759Z,8.90
2023-04-11T04:16:05.118Z,8.90
2023-04-11T04:18:34.488Z,8.90
2023-04-11T04:21:03.633Z,8.80
2023-04-11T04:23:33.702Z,8.80
2023-04-11T04:26:13.180Z,8.80
2023-04-11T04:28:47.273Z,8.80
2023-04-11T04:31:25.730Z,8.80
2023-04-11T04:34:08.488Z,8.80
2023-04-11T04:36:46.624Z,8.90
2023-04-11T04:39:20.103Z,8.90
2023-04-11T04:41:58.487Z,8.80
2023-04-11T04:44:32.864Z,8.80
2023-04-11T04:47:07.547Z,8.80
2023-04-11T04:49:36.252Z,8.70
2023-04-11T04:52:04.998Z,8.70
2023-04-11T04:54:33.838Z,8.70
2023-04-11T04:57:02.813Z,8.70
2023-04-11T04:59:31.943Z,8.80
2023-04-11T05:02:11.128Z,8.80
2023-04-11T05:04:39.860Z,8.80
2023-04-11T05:07:08.454Z,8.70
2023-04-11T05:09:38.057Z,8.70
2023-04-11T05:12:16.796Z,8.80
2023-04-11T05:14:45.871Z,8.80
2023-04-11T05:17:16.306Z,8.80
2023-04-11T05:19:45.063Z,8.70
2023-04-11T05:22:13.695Z,8.70
2023-04-11T05:24:47.432Z,8.70
2023-04-11T05:27:16.214Z,8.70
2023-04-11T05:29:45.285Z,8.80
2023-04-11T05:32:16.796Z,8.80
2023-04-11T05:34:58.721Z,8.70
2023-04-11T05:37:37.163Z,8.70
2023-04-11T05:40:08.600Z,8.70
2023-04-11T05:42:37.168Z,8.80
2023-04-11T05:45:06.700Z,8.70
2023-04-11T05:47:36.708Z,8.80
2023-04-11T05:50:06.069Z,8.90
2023-04-11T05:52:34.666Z,8.90
2023-04-11T05:55:04.751Z,8.90
2023-04-11T05:57:33.442Z,8.90
2023-04-11T06:00:04.509Z,8.90
2023-04-11T06:02:43.641Z,8.90
2023-04-11T06:05:12.987Z,9.00
2023-04-11T06:07:41.775Z,8.90
2023-04-11T06:10:11.410Z,9.00
2023-04-11T06:12:40.398Z,8.90
2023-04-11T06:15:12.101Z,8.90
2023-04-11T06:17:42.148Z,8.90
2023-04-11T06:20:11.350Z,8.90
2023-04-11T06:22:40.881Z,8.90
2023-04-11T06:25:09.940Z,8.90
2023-04-11T06:27:38.681Z,9.00
2023-04-11T06:30:08.974Z,9.10
2023-04-11T06:32:37.611Z,9.10
2023-04-11T06:35:08.298Z,9.20
2023-04-11T06:37:36.947Z,9.30
2023-04-11T06:40:06.918Z,9.30
2023-04-11T06:42:35.699Z,9.30
2023-04-11T06:45:06.100Z,9.30
2023-04-11T06:47:35.223Z,9.30
2023-04-11T06:50:03.992Z,9.40
2023-04-11T06:52:33.962Z,9.50
2023-04-11T06:55:02.625Z,9.60
2023-04-11T06:57:31.223Z,9.60
2023-04-11T06:59:59.853Z,9.70
2023-04-11T07:02:30.225Z,9.70
2023-04-11T07:04:59.012Z,9.70
2023-04-11T07:07:27.594Z,9.80
2023-04-11T07:09:57.624Z,9.80
2023-04-11T07:12:26.242Z,9.90
2023-04-11T07:14:54.885Z,9.90
2023-04-11T07:17:23.609Z,9.90
2023-04-11T07:19:52.316Z,10.00
2023-04-11T07:22:20.918Z,10.00
2023-04-11T07:24:52.769Z,10.00
2023-04-11T07:27:23.416Z,10.10
2023-04-11T07:29:52.098Z,10.10
2023-04-11T07:32:20.736Z,10.20
2023-04-11T07:34:49.328Z,10.40
2023-04-11T07:37:18.130Z,10.50
2023-04-11T07:39:46.691Z,10.60
2023-04-11T07:42:15.379Z,10.60
2023-04-11T07:44:45.419Z,10.60
2023-04-11T07:47:13.978Z,10.60
2023-04-11T07:49:42.607Z,10.60
2023-04-11T07:52:13.592Z,10.60
2023-04-11T07:54:43.013Z,10.70
2023-04-11T07:57:11.714Z,10.80
2023-04-11T07:59:41.386Z,10.80
2023-04-11T08:02:11.362Z,10.90
2023-04-11T08:04:40.501Z,11.00
2023-04-11T08:07:09.284Z,11.10
2023-04-11T08:09:37.942Z,11.20
2023-04-11T08:12:06.744Z,11.30
2023-04-11T08:14:35.392Z,11.50
2023-04-11T08:17:08.173Z,11.50
2023-04-11T08:19:42.373Z,11.60
2023-04-11T08:22:11.048Z,11.70
2023-04-11T08:24:39.638Z,11.80
2023-04-11T08:27:08.446Z,11.80
2023-04-11T08:29:36.975Z,11.90
2023-04-11T08:32:06.467Z,12.00
2023-04-11T08:34:35.390Z,12.00
2023-04-11T08:37:05.373Z,12.00
2023-04-11T08:39:33.978Z,11.90
2023-04-11T08:42:02.607Z,11.80
2023-04-11T08:44:31.181Z,11.90
2023-04-11T08:46:59.827Z,11.90
2023-04-11T08:49:28.493Z,11.90
2023-04-11T08:51:57.139Z,11.90
2023-04-11T08:54:27.041Z,12.10
2023-04-11T08:56:55.661Z,12.20
2023-04-11T08:59:24.320Z,12.20
2023-04-11T09:01:53.178Z,12.30
2023-04-11T09:04:22.029Z,12.40
2023-04-11T09:07:00.589Z,12.60
2023-04-11T09:09:31.761Z,12.70
2023-04-11T09:12:00.477Z,12.90
2023-04-11T09:14:29.097Z,13.00
2023-04-11T09:17:00.164Z,12.90
2023-04-11T09:19:30.148Z,12.90
2023-04-11T09:22:00.469Z,12.90
2023-04-11T09:24:29.814Z,12.90
2023-04-11T09:27:10.189Z,12.90
2023-04-11T09:29:43.536Z,12.90
2023-04-11T09:32:30.586Z,12.80
2023-04-11T09:35:20.912Z,12.70
2023-04-11T09:37:51.019Z,12.60
2023-04-11T09:40:22.729Z,12.60
2023-04-11T09:43:00.478Z,12.70
2023-04-11T09:45:32.210Z,12.90
2023-04-11T09:48:05.409Z,13.10
2023-04-11T09:50:34.272Z,13.40
2023-04-11T09:53:03.887Z,13.60
2023-04-11T09:55:34.159Z,13.70
2023-04-11T09:58:07.239Z,13.70
2023-04-11T10:00:35.990Z,13.80
2023-04-11T10:03:04.782Z,14.00
2023-04-11T10:05:34.442Z,14.00
2023-04-11T10:08:07.017Z,14.10
2023-04-11T10:10:36.706Z,14.20
2023-04-11T10:13:44.170Z,14.30
2023-04-11T10:16:14.848Z,14.30
2023-04-11T10:19:23.808Z,14.30
2023-04-11T10:21:52.486Z,14.20
2023-04-11T10:24:22.125Z,13.90
2023-04-11T10:26:52.524Z,13.90
2023-04-11T10:29:52.004Z,13.90
2023-04-11T10:32:23.097Z,13.90
2023-04-11T10:35:25.153Z,14.10
2023-04-11T10:37:53.784Z,14.20
2023-04-11T10:40:22.878Z,14.30
2023-04-11T10:42:51.639Z,14.50
2023-04-11T10:45:28.715Z,14.30
2023-04-11T10:48:07.352Z,14.20
2023-04-11T10:50:44.529Z,14.00
2023-04-11T10:53:36.344Z,13.90
2023-04-11T10:56:05.642Z,14.00
2023-04-11T10:58:39.375Z,14.10
2023-04-11T11:01:37.257Z,14.10
2023-04-11T11:04:13.040Z,14.00
2023-04-11T11:06:47.174Z,13.90
2023-04-11T11:09:26.344Z,13.90
2023-04-11T11:12:08.038Z,13.90
2023-04-11T11:14:36.915Z,14.00
2023-04-11T11:17:07.880Z,14.10
2023-04-11T11:19:36.979Z,14.30
2023-04-11T11:22:06.335Z,14.40
2023-04-11T11:24:35.415Z,14.40
2023-04-11T11:27:04.188Z,14.40
2023-04-11T11:29:35.739Z,14.50
2023-04-11T11:32:07.488Z,14.40
2023-04-11T11:34:36.713Z,14.30
2023-04-11T11:37:05.515Z,14.20
2023-04-11T11:39:35.406Z,14.20
2023-04-11T11:42:04.577Z,14.30
2023-04-11T11:44:33.173Z,14.40
2023-04-11T11:47:03.143Z,14.60
2023-04-11T11:49:46.677Z,13.70
2023-04-11T11:52:32.676Z,14.60
2023-04-11T11:55:01.671Z,14.60
2023-04-11T11:57:30.228Z,14.40
2023-04-11T12:00:01.908Z,14.40
2023-04-11T12:02:36.417Z,14.40
2023-04-11T12:05:08.587Z,14.50
2023-04-11T12:07:39.454Z,14.60
2023-04-11T12:10:11.965Z,14.70
2023-04-11T12:12:42.165Z,15.00
2023-04-11T12:15:12.727Z,15.10
2023-04-11T12:17:41.774Z,15.20
2023-04-11T12:20:12.183Z,15.30
2023-04-11T12:22:40.902Z,15.40
2023-04-11T12:25:11.446Z,15.50
2023-04-11T12:27:41.037Z,15.60
2023-04-11T12:30:11.326Z,15.60
2023-04-11T12:32:39.972Z,15.60
2023-04-11T12:35:09.556Z,15.70
2023-04-11T12:37:40.350Z,15.80
2023-04-11T12:40:11.612Z,15.90
2023-04-11T12:42:49.027Z,15.90
2023-04-11T12:45:24.606Z,16.00
2023-04-11T12:47:53.363Z,15.90
2023-04-11T12:50:23.702Z,15.80
2023-04-11T12:52:55.607Z,15.60
2023-04-11T12:55:25.010Z,15.40
2023-04-11T12:57:53.556Z,15.30
2023-04-11T13:00:22.522Z,15.30
2023-04-11T13:02:51.158Z,15.30
2023-04-11T13:05:19.959Z,15.40
2023-04-11T13:07:48.501Z,15.50
2023-04-11T13:10:18.588Z,15.50
2023-04-11T13:12:48.474Z,15.60
2023-04-11T13:15:17.577Z,15.80
2023-04-11T13:17:46.202Z,15.70
2023-04-11T13:20:15.017Z,15.70
2023-04-11T13:22:44.617Z,15.80
2023-04-11T13:25:13.325Z,15.90
2023-04-11T13:27:43.888Z,15.70
2023-04-11T13:30:13.547Z,15.60
2023-04-11T13:32:42.174Z,15.60
2023-04-11T13:35:11.397Z,15.50
2023-04-11T13:37:39.881Z,15.40
2023-04-11T13:40:11.196Z,15.40
2023-04-11T13:42:40.033Z,15.40
2023-04-11T13:45:11.074Z,15.50
2023-04-11T13:47:39.739Z,15.50
2023-04-11T13:50:15.701Z,15.50
2023-04-11T13:52:44.326Z,15.30
2023-04-11T13:55:12.921Z,15.30
2023-04-11T13:57:41.791Z,15.20
2023-04-11T14:00:12.775Z,15.10
2023-04-11T14:02:41.789Z,15.00
2023-04-11T14:05:11.318Z,14.90
2023-04-11T14:07:40.158Z,14.80
2023-04-11T14:10:09.508Z,14.70
2023-04-11T14:12:38.273Z,14.50
2023-04-11T14:15:08.959Z,14.40
2023-04-11T14:17:38.914Z,14.30
2023-04-11T14:20:09.322Z,14.20
2023-04-11T14:22:38.019Z,14.30
2023-04-11T14:25:10.510Z,14.50
2023-04-11T14:27:40.608Z,14.60
2023-04-11T14:30:10.552Z,14.70
2023-04-11T14:32:41.039Z,14.80
2023-04-11T14:35:10.375Z,14.80
2023-04-11T14:37:39.096Z,14.80
2023-04-11T14:40:11.057Z,14.80
2023-04-11T14:42:39.839Z,14.70
2023-04-11T14:45:09.291Z,14.50
2023-04-11T14:47:39.734Z,14.40
2023-04-11T14:50:11.288Z,14.40
2023-04-11T14:52:39.957Z,14.40
2023-04-11T14:55:09.872Z,14.40
2023-04-11T14:57:47.007Z,14.60
2023-04-11T15:00:20.306Z,14.80
2023-04-11T15:02:50.584Z,14.90
2023-04-11T15:05:20.989Z,15.00
2023-04-11T15:07:51.717Z,15.10
2023-04-11T15:10:22.603Z,15.10
2023-04-11T15:12:51.958Z,15.20
2023-04-11T15:15:20.656Z,15.20
2023-04-11T15:17:51.124Z,15.30
2023-04-11T15:20:21.161Z,15.40
2023-04-11T15:22:49.786Z,15.30
2023-04-11T15:25:18.336Z,15.30
2023-04-11T15:27:46.888Z,15.20
2023-04-11T15:30:15.483Z,15.20
2023-04-11T15:32:44.554Z,15.20
2023-04-11T15:35:13.208Z,15.20
2023-04-11T15:37:43.148Z,15.10
2023-04-11T15:40:12.572Z,15.10
2023-04-11T15:42:41.193Z,15.10
2023-04-11T15:45:10.419Z,15.10
2023-04-11T15:47:38.951Z,15.20
2023-04-11T15:50:08.207Z,15.10
2023-04-11T15:52:36.735Z,15.00
2023-04-11T15:55:08.060Z,14.90
2023-04-11T15:57:38.599Z,14.90
2023-04-11T16:00:09.809Z,14.80
2023-04-11T16:02:38.927Z,14.90
2023-04-11T16:05:08.618Z,14.90
2023-04-11T16:07:37.445Z,15.00
2023-04-11T16:10:08.804Z,14.90
2023-04-11T16:12:37.642Z,14.90
2023-04-11T16:15:07.805Z,14.70
2023-04-11T16:17:36.405Z,14.60
2023-04-11T16:20:09.633Z,14.50
2023-04-11T16:22:39.909Z,14.40
2023-04-11T16:25:10.930Z,14.30
2023-04-11T16:27:39.569Z,14.20
2023-04-11T16:30:09.570Z,14.00
2023-04-11T16:32:38.188Z,14.00
2023-04-11T16:35:07.393Z,13.90
2023-04-11T16:37:36.154Z,13.70
2023-04-11T16:40:07.493Z,13.80
2023-04-11T16:42:37.503Z,13.70
2023-04-11T16:45:07.653Z,13.70
2023-04-11T16:47:36.374Z,13.60
2023-04-11T16:50:06.054Z,13.70
2023-04-11T16:52:34.786Z,13.50
2023-04-11T16:55:03.499Z,13.50
2023-04-11T16:57:33.100Z,13.50
2023-04-11T17:00:16.428Z,13.40
2023-04-11T17:02:45.156Z,13.40
2023-04-11T17:05:14.286Z,13.40
2023-04-11T17:07:43.746Z,13.30
2023-04-11T17:10:12.989Z,13.30
2023-04-11T17:12:41.555Z,13.20
2023-04-11T17:15:12.776Z,13.20
2023-04-11T17:17:41.434Z,13.10
2023-04-11T17:20:12.087Z,13.00
2023-04-11T17:22:43.172Z,13.00
2023-04-11T17:25:11.886Z,12.90
2023-04-11T17:27:41.719Z,12.90
2023-04-11T17:30:12.389Z,12.90
2023-04-11T17:32:41.145Z,12.80
2023-04-11T17:35:10.720Z,12.80
2023-04-11T17:37:39.716Z,12.80
2023-04-11T17:40:12.944Z,12.70
2023-04-11T17:42:41.967Z,12.70
2023-04-11T17:47:44.684Z,12.60
2023-04-11T17:50:14.375Z,12.50
2023-04-11T17:52:46.123Z,12.50
2023-04-11T17:55:17.461Z,12.40
2023-04-11T17:57:47.222Z,12.40
2023-04-11T18:00:23.118Z,12.30
2023-04-11T18:02:54.595Z,12.30
2023-04-11T18:05:26.117Z,12.20
2023-04-11T18:07:56.371Z,12.20
2023-04-11T18:10:25.890Z,12.10
2023-04-11T18:12:56.162Z,12.10
2023-04-11T18:15:27.018Z,12.00
2023-04-11T18:17:55.806Z,12.00
2023-04-11T18:20:24.618Z,11.90
2023-04-11T18:22:55.975Z,11.80
2023-04-11T18:25:24.909Z,11.70
2023-04-11T18:27:53.446Z,11.70
2023-04-11T18:30:22.098Z,11.60
2023-04-11T18:32:53.896Z,11.50
2023-04-11T18:35:22.681Z,11.50
2023-04-11T18:37:54.209Z,11.40
2023-04-11T18:40:22.751Z,11.40
2023-04-11T18:42:53.176Z,11.30
2023-04-11T18:45:22.769Z,11.20
2023-04-11T18:47:52.805Z,11.20
2023-04-11T18:50:22.551Z,11.10
2023-04-11T18:52:55.563Z,11.10
2023-04-11T18:55:26.082Z,11.00
2023-04-11T18:57:58.153Z,11.00
2023-04-11T19:00:30.105Z,11.00
2023-04-11T19:03:00.392Z,10.90
2023-04-11T19:05:29.640Z,10.90
2023-04-11T19:07:59.940Z,10.80
2023-04-11T19:10:28.634Z,10.80
2023-04-11T19:12:57.258Z,10.80
2023-04-11T19:15:25.916Z,10.70
2023-04-11T19:17:54.993Z,10.70
2023-04-11T19:20:26.550Z,10.60
2023-04-11T19:22:55.313Z,10.70
2023-04-11T19:25:24.266Z,10.70
2023-04-11T19:27:53.143Z,10.60
2023-04-11T19:30:22.036Z,10.60
2023-04-11T19:32:50.712Z,10.60
2023-04-11T19:35:21.407Z,10.50
2023-04-11T19:37:51.689Z,10.50
2023-04-11T19:40:23.269Z,10.50
2023-04-11T19:42:52.336Z,10.40
2023-04-11T19:45:22.106Z,10.40
2023-04-11T19:47:50.754Z,10.40
2023-04-11T19:53:04.763Z,10.30
2023-04-11T19:55:33.340Z,10.30
2023-04-11T19:58:01.948Z,10.20
2023-04-11T20:00:35.384Z,10.20
2023-04-11T20:03:05.735Z,10.20
2023-04-11T20:05:34.487Z,10.20
2023-04-11T20:08:04.339Z,10.20
2023-04-11T20:10:34.162Z,10.10
2023-04-11T20:13:02.791Z,10.10
2023-04-11T20:15:32.053Z,10.10
2023-04-11T20:18:00.737Z,10.10
2023-04-11T20:20:33.554Z,10.00
2023-04-11T20:23:04.840Z,10.00
2023-04-11T20:25:35.768Z,10.00
2023-04-11T20:28:04.270Z,10.00
2023-04-11T20:30:33.657Z,9.90
2023-04-11T20:33:02.228Z,9.90
2023-04-11T20:35:30.898Z,9.90
2023-04-11T20:37:59.684Z,9.90
2023-04-11T20:40:28.249Z,9.80
2023-04-11T20:43:00.226Z,9.90
2023-04-11T20:45:30.756Z,9.90
2023-04-11T20:48:01.712Z,9.80
2023-04-11T20:50:33.273Z,9.90
2023-04-11T20:53:02.500Z,9.90
2023-04-11T20:55:33.205Z,9.90
2023-04-11T20:58:03.748Z,9.90
2023-04-11T21:00:32.355Z,9.90
2023-04-11T21:03:01.137Z,9.90
2023-04-11T21:05:30.028Z,9.90
2023-04-11T21:07:58.585Z,9.90
2023-04-11T21:10:27.239Z,9.90
2023-04-11T21:12:55.924Z,10.00
2023-04-11T21:15:25.876Z,10.00
2023-04-11T21:17:54.649Z,9.90
2023-04-11T21:20:23.660Z,9.90
2023-04-11T21:22:53.871Z,9.90
2023-04-11T21:25:25.123Z,9.90
2023-04-11T21:27:53.814Z,9.90
2023-04-11T21:30:22.466Z,9.90
2023-04-11T21:32:52.762Z,9.90
2023-04-11T21:35:21.742Z,9.90
2023-04-11T21:37:50.339Z,10.00
2023-04-11T21:40:18.884Z,10.00
2023-04-11T21:42:47.475Z,10.00
2023-04-11T21:45:16.372Z,10.00
2023-04-11T21:47:44.919Z,10.00
2023-04-11T21:50:14.910Z,10.00
2023-04-11T21:52:44.500Z,9.90
2023-04-11T21:55:13.813Z,9.90
2023-04-11T21:57:42.501Z,9.90
2023-04-11T22:00:11.826Z,9.90
2023-04-11T22:02:41.190Z,9.90
2023-04-11T22:05:10.658Z,9.90
2023-04-11T22:07:49.986Z,9.90
2023-04-11T22:10:22.481Z,9.90
2023-04-11T22:12:53.666Z,9.80
2023-04-11T22:15:24.060Z,9.90
2023-04-11T22:17:54.302Z,9.90
2023-04-11T22:20:23.337Z,10.00
2023-04-11T22:22:53.320Z,10.00
2023-04-11T22:25:22.361Z,10.10
2023-04-11T22:27:54.790Z,10.10
2023-04-11T22:30:24.898Z,10.20
2023-04-11T22:32:54.382Z,10.20
2023-04-11T22:35:24.756Z,10.20
2023-04-11T22:37:57.280Z,10.20
2023-04-11T22:40:26.171Z,10.20
2023-04-11T22:42:55.943Z,10.20
2023-04-11T22:45:24.892Z,10.30
2023-04-11T22:47:56.797Z,10.20
2023-04-11T22:50:25.427Z,10.30
2023-04-11T22:52:55.577Z,10.30
2023-04-11T22:55:24.719Z,10.30
2023-04-11T22:57:53.376Z,10.30
2023-04-11T23:00:24.087Z,10.30
2023-04-11T23:02:52.856Z,10.30
2023-04-11T23:05:21.649Z,10.40
2023-04-11T23:07:51.171Z,10.30
2023-04-11T23:10:21.373Z,10.40
2023-04-11T23:12:50.216Z,10.40
2023-04-11T23:15:19.364Z,10.40
2023-04-11T23:17:48.065Z,10.40
2023-04-11T23:20:17.592Z,10.40
2023-04-11T23:22:46.276Z,10.50
2023-04-11T23:25:15.562Z,10.50
2023-04-11T23:27:45.943Z,10.50
2023-04-11T23:30:17.584Z,10.60
2023-04-11T23:32:47.089Z,10.60
2023-04-11T23:35:17.082Z,10.60
2023-04-11T23:37:45.795Z,10.60
2023-04-11T23:40:14.943Z,10.60
2023-04-11T23:42:45.159Z,10.60
2023-04-11T23:45:14.983Z,10.70
2023-04-11T23:47:43.621Z,10.70
2023-04-11T23:50:13.722Z,10.70
2023-04-11T23:52:42.770Z,10.70
2023-04-11T23:55:12.271Z,10.80
2023-04-11T23:57:41.012Z,10.80
